sensor_id;sensor_type;location;lat;lon;timestamp;P1;durP1;ratioP1;P2;durP2;ratioP2
63434;SDS011;68814;50.872;5.306;2023-09-12T00:00:10;9.73;;;7.25;;
63434;SDS011;68814;50.872;5.306;2023-09-12T00:02:36;13.73;;;7.90;;
63434;SDS011;68814;50.872;5.306;2023-09-12T00:05:02;11.15;;;7.88;;
63434;SDS011;68814;50.872;5.306;2023-09-12T00:07:29;10.82;;;8.05;;
63434;SDS011;68814;50.872;5.306;2023-09-12T00:09:55;14.13;;;7.90;;
63434;SDS011;68814;50.872;5.306;2023-09-12T00:12:22;12.23;;;7.75;;
63434;SDS011;68814;50.872;5.306;2023-09-12T00:14:49;10.98;;;7.32;;
63434;SDS011;68814;50.872;5.306;2023-09-12T00:17:16;10.35;;;7.57;;
63434;SDS011;68814;50.872;5.306;2023-09-12T00:19:42;11.30;;;8.38;;
63434;SDS011;68814;50.872;5.306;2023-09-12T00:22:08;13.18;;;8.43;;
63434;SDS011;68814;50.872;5.306;2023-09-12T00:24:34;12.90;;;8.48;;
63434;SDS011;68814;50.872;5.306;2023-09-12T00:26:59;16.63;;;10.73;;
63434;SDS011;68814;50.872;5.306;2023-09-12T00:29:25;13.30;;;9.45;;
63434;SDS011;68814;50.872;5.306;2023-09-12T00:31:50;14.13;;;9.40;;
63434;SDS011;68814;50.872;5.306;2023-09-12T00:34:16;17.80;;;9.57;;
63434;SDS011;68814;50.872;5.306;2023-09-12T00:36:43;15.55;;;9.25;;
63434;SDS011;68814;50.872;5.306;2023-09-12T00:39:09;12.93;;;9.25;;
63434;SDS011;68814;50.872;5.306;2023-09-12T00:41:42;12.73;;;9.45;;
63434;SDS011;68814;50.872;5.306;2023-09-12T00:44:09;17.13;;;9.77;;
63434;SDS011;68814;50.872;5.306;2023-09-12T00:46:35;14.07;;;9.77;;
63434;SDS011;68814;50.872;5.306;2023-09-12T00:49:01;17.90;;;9.75;;
63434;SDS011;68814;50.872;5.306;2023-09-12T00:51:28;14.23;;;9.82;;
63434;SDS011;68814;50.872;5.306;2023-09-12T00:53:55;15.57;;;9.45;;
63434;SDS011;68814;50.872;5.306;2023-09-12T00:56:22;17.00;;;10.63;;
63434;SDS011;68814;50.872;5.306;2023-09-12T00:58:48;16.35;;;9.95;;
63434;SDS011;68814;50.872;5.306;2023-09-12T01:01:16;18.48;;;12.07;;
63434;SDS011;68814;50.872;5.306;2023-09-12T01:03:43;19.70;;;11.25;;
63434;SDS011;68814;50.872;5.306;2023-09-12T01:06:09;14.90;;;11.02;;
63434;SDS011;68814;50.872;5.306;2023-09-12T01:08:39;14.27;;;10.80;;
63434;SDS011;68814;50.872;5.306;2023-09-12T01:11:04;15.68;;;10.18;;
63434;SDS011;68814;50.872;5.306;2023-09-12T01:13:30;15.15;;;10.15;;
63434;SDS011;68814;50.872;5.306;2023-09-12T01:15:57;14.40;;;10.02;;
63434;SDS011;68814;50.872;5.306;2023-09-12T01:18:22;14.93;;;10.40;;
63434;SDS011;68814;50.872;5.306;2023-09-12T01:23:47;18.10;;;12.10;;
63434;SDS011;68814;50.872;5.306;2023-09-12T01:29:43;12.90;;;10.82;;
63434;SDS011;68814;50.872;5.306;2023-09-12T01:32:10;17.33;;;11.45;;
63434;SDS011;68814;50.872;5.306;2023-09-12T01:34:39;16.98;;;9.88;;
63434;SDS011;68814;50.872;5.306;2023-09-12T01:37:04;15.85;;;11.07;;
63434;SDS011;68814;50.872;5.306;2023-09-12T01:39:30;17.75;;;12.30;;
63434;SDS011;68814;50.872;5.306;2023-09-12T01:41:56;18.33;;;12.95;;
63434;SDS011;68814;50.872;5.306;2023-09-12T01:44:25;16.10;;;12.52;;
63434;SDS011;68814;50.872;5.306;2023-09-12T01:46:53;18.67;;;12.73;;
63434;SDS011;68814;50.872;5.306;2023-09-12T01:49:21;18.35;;;12.65;;
63434;SDS011;68814;50.872;5.306;2023-09-12T01:51:49;21.80;;;14.25;;
63434;SDS011;68814;50.872;5.306;2023-09-12T01:54:15;23.50;;;14.45;;
63434;SDS011;68814;50.872;5.306;2023-09-12T01:56:41;24.67;;;13.93;;
63434;SDS011;68814;50.872;5.306;2023-09-12T01:59:08;19.10;;;13.80;;
63434;SDS011;68814;50.872;5.306;2023-09-12T02:01:34;20.52;;;13.68;;
63434;SDS011;68814;50.872;5.306;2023-09-12T02:03:59;19.60;;;12.77;;
63434;SDS011;68814;50.872;5.306;2023-09-12T02:06:25;23.77;;;15.23;;
63434;SDS011;68814;50.872;5.306;2023-09-12T02:08:51;19.00;;;14.23;;
63434;SDS011;68814;50.872;5.306;2023-09-12T02:11:16;23.45;;;15.10;;
63434;SDS011;68814;50.872;5.306;2023-09-12T02:13:44;19.85;;;13.68;;
63434;SDS011;68814;50.872;5.306;2023-09-12T02:16:10;24.98;;;15.38;;
63434;SDS011;68814;50.872;5.306;2023-09-12T02:18:36;19.30;;;14.85;;
63434;SDS011;68814;50.872;5.306;2023-09-12T02:21:01;22.75;;;14.48;;
63434;SDS011;68814;50.872;5.306;2023-09-12T02:23:27;23.98;;;14.75;;
63434;SDS011;68814;50.872;5.306;2023-09-12T02:25:53;22.65;;;15.18;;
63434;SDS011;68814;50.872;5.306;2023-09-12T02:28:18;19.45;;;13.30;;
63434;SDS011;68814;50.872;5.306;2023-09-12T02:30:44;20.15;;;13.73;;
63434;SDS011;68814;50.872;5.306;2023-09-12T02:33:10;19.02;;;13.93;;
63434;SDS011;68814;50.872;5.306;2023-09-12T02:35:35;18.77;;;13.60;;
63434;SDS011;68814;50.872;5.306;2023-09-12T02:38:01;19.65;;;14.50;;
63434;SDS011;68814;50.872;5.306;2023-09-12T02:40:26;22.13;;;13.13;;
63434;SDS011;68814;50.872;5.306;2023-09-12T02:42:52;20.33;;;14.18;;
63434;SDS011;68814;50.872;5.306;2023-09-12T02:45:18;18.48;;;14.20;;
63434;SDS011;68814;50.872;5.306;2023-09-12T02:47:43;23.05;;;14.73;;
63434;SDS011;68814;50.872;5.306;2023-09-12T02:50:13;20.73;;;13.18;;
63434;SDS011;68814;50.872;5.306;2023-09-12T02:52:39;21.83;;;14.50;;
63434;SDS011;68814;50.872;5.306;2023-09-12T02:55:05;20.50;;;14.20;;
63434;SDS011;68814;50.872;5.306;2023-09-12T02:57:31;21.33;;;14.75;;
63434;SDS011;68814;50.872;5.306;2023-09-12T02:59:56;20.20;;;14.57;;
63434;SDS011;68814;50.872;5.306;2023-09-12T03:02:23;24.23;;;14.60;;
63434;SDS011;68814;50.872;5.306;2023-09-12T03:04:49;23.60;;;15.00;;
63434;SDS011;68814;50.872;5.306;2023-09-12T03:07:15;25.45;;;14.55;;
63434;SDS011;68814;50.872;5.306;2023-09-12T03:09:40;21.27;;;14.25;;
63434;SDS011;68814;50.872;5.306;2023-09-12T03:12:06;18.63;;;14.32;;
63434;SDS011;68814;50.872;5.306;2023-09-12T03:14:32;20.73;;;14.40;;
63434;SDS011;68814;50.872;5.306;2023-09-12T03:16:57;20.77;;;15.65;;
63434;SDS011;68814;50.872;5.306;2023-09-12T03:19:23;20.00;;;14.35;;
63434;SDS011;68814;50.872;5.306;2023-09-12T03:21:49;20.08;;;13.38;;
63434;SDS011;68814;50.872;5.306;2023-09-12T03:24:14;20.35;;;13.23;;
63434;SDS011;68814;50.872;5.306;2023-09-12T03:26:43;21.42;;;14.70;;
63434;SDS011;68814;50.872;5.306;2023-09-12T03:29:09;21.30;;;13.85;;
63434;SDS011;68814;50.872;5.306;2023-09-12T03:31:35;20.88;;;13.73;;
63434;SDS011;68814;50.872;5.306;2023-09-12T03:34:03;21.35;;;15.05;;
63434;SDS011;68814;50.872;5.306;2023-09-12T03:36:28;24.40;;;15.90;;
63434;SDS011;68814;50.872;5.306;2023-09-12T03:38:54;20.08;;;15.07;;
63434;SDS011;68814;50.872;5.306;2023-09-12T03:41:20;22.95;;;14.38;;
63434;SDS011;68814;50.872;5.306;2023-09-12T03:43:50;22.17;;;14.70;;
63434;SDS011;68814;50.872;5.306;2023-09-12T03:46:15;20.52;;;15.05;;
63434;SDS011;68814;50.872;5.306;2023-09-12T03:48:41;22.80;;;16.08;;
63434;SDS011;68814;50.872;5.306;2023-09-12T03:51:07;23.90;;;14.77;;
63434;SDS011;68814;50.872;5.306;2023-09-12T03:53:32;20.38;;;15.60;;
63434;SDS011;68814;50.872;5.306;2023-09-12T03:55:58;23.67;;;16.27;;
63434;SDS011;68814;50.872;5.306;2023-09-12T03:58:26;25.42;;;16.02;;
63434;SDS011;68814;50.872;5.306;2023-09-12T04:00:59;21.90;;;16.52;;
63434;SDS011;68814;50.872;5.306;2023-09-12T04:03:32;24.00;;;15.90;;
63434;SDS011;68814;50.872;5.306;2023-09-12T04:08:23;29.02;;;16.95;;
63434;SDS011;68814;50.872;5.306;2023-09-12T04:10:49;25.35;;;17.15;;
63434;SDS011;68814;50.872;5.306;2023-09-12T04:13:15;31.25;;;19.55;;
63434;SDS011;68814;50.872;5.306;2023-09-12T04:15:41;24.95;;;17.52;;
63434;SDS011;68814;50.872;5.306;2023-09-12T04:18:06;25.95;;;16.10;;
63434;SDS011;68814;50.872;5.306;2023-09-12T04:20:32;24.15;;;17.30;;
63434;SDS011;68814;50.872;5.306;2023-09-12T04:23:00;22.35;;;15.85;;
63434;SDS011;68814;50.872;5.306;2023-09-12T04:25:27;21.45;;;15.13;;
63434;SDS011;68814;50.872;5.306;2023-09-12T04:27:53;20.13;;;15.02;;
63434;SDS011;68814;50.872;5.306;2023-09-12T04:30:19;24.13;;;15.68;;
63434;SDS011;68814;50.872;5.306;2023-09-12T04:32:45;22.75;;;15.60;;
63434;SDS011;68814;50.872;5.306;2023-09-12T04:35:13;23.58;;;15.68;;
63434;SDS011;68814;50.872;5.306;2023-09-12T04:37:38;22.02;;;15.98;;
63434;SDS011;68814;50.872;5.306;2023-09-12T04:40:07;20.63;;;15.48;;
63434;SDS011;68814;50.872;5.306;2023-09-12T04:42:33;22.52;;;16.17;;
63434;SDS011;68814;50.872;5.306;2023-09-12T04:44:59;21.77;;;16.48;;
63434;SDS011;68814;50.872;5.306;2023-09-12T04:47:25;21.00;;;15.18;;
63434;SDS011;68814;50.872;5.306;2023-09-12T04:49:50;25.65;;;17.23;;
63434;SDS011;68814;50.872;5.306;2023-09-12T04:52:17;25.98;;;15.40;;
63434;SDS011;68814;50.872;5.306;2023-09-12T04:54:42;25.15;;;16.27;;
63434;SDS011;68814;50.872;5.306;2023-09-12T04:57:08;28.70;;;16.65;;
63434;SDS011;68814;50.872;5.306;2023-09-12T04:59:34;24.48;;;16.13;;
63434;SDS011;68814;50.872;5.306;2023-09-12T05:01:59;24.48;;;17.17;;
63434;SDS011;68814;50.872;5.306;2023-09-12T05:04:25;29.42;;;17.63;;
63434;SDS011;68814;50.872;5.306;2023-09-12T05:06:51;26.42;;;18.15;;
63434;SDS011;68814;50.872;5.306;2023-09-12T05:09:16;25.35;;;17.55;;
63434;SDS011;68814;50.872;5.306;2023-09-12T05:11:42;28.70;;;17.58;;
63434;SDS011;68814;50.872;5.306;2023-09-12T05:14:09;24.70;;;17.95;;
63434;SDS011;68814;50.872;5.306;2023-09-12T05:16:35;25.00;;;17.40;;
63434;SDS011;68814;50.872;5.306;2023-09-12T05:19:00;31.00;;;18.58;;
63434;SDS011;68814;50.872;5.306;2023-09-12T05:21:28;26.13;;;17.73;;
63434;SDS011;68814;50.872;5.306;2023-09-12T05:23:54;29.88;;;18.17;;
63434;SDS011;68814;50.872;5.306;2023-09-12T05:26:20;29.58;;;18.83;;
63434;SDS011;68814;50.872;5.306;2023-09-12T05:28:45;23.58;;;16.17;;
63434;SDS011;68814;50.872;5.306;2023-09-12T05:31:11;26.60;;;16.17;;
63434;SDS011;68814;50.872;5.306;2023-09-12T05:33:37;25.95;;;17.08;;
63434;SDS011;68814;50.872;5.306;2023-09-12T05:36:05;26.38;;;18.20;;
63434;SDS011;68814;50.872;5.306;2023-09-12T05:38:30;28.35;;;17.80;;
63434;SDS011;68814;50.872;5.306;2023-09-12T05:40:56;27.00;;;18.30;;
63434;SDS011;68814;50.872;5.306;2023-09-12T05:43:25;29.55;;;17.88;;
63434;SDS011;68814;50.872;5.306;2023-09-12T05:45:50;26.55;;;17.98;;
63434;SDS011;68814;50.872;5.306;2023-09-12T05:48:17;29.20;;;17.98;;
63434;SDS011;68814;50.872;5.306;2023-09-12T05:50:44;29.48;;;18.52;;
63434;SDS011;68814;50.872;5.306;2023-09-12T05:53:09;26.48;;;17.70;;
63434;SDS011;68814;50.872;5.306;2023-09-12T05:55:35;30.33;;;18.85;;
63434;SDS011;68814;50.872;5.306;2023-09-12T05:58:01;24.08;;;16.67;;
63434;SDS011;68814;50.872;5.306;2023-09-12T06:00:30;30.08;;;17.77;;
63434;SDS011;68814;50.872;5.306;2023-09-12T06:02:56;26.55;;;17.08;;
63434;SDS011;68814;50.872;5.306;2023-09-12T06:05:22;25.20;;;18.00;;
63434;SDS011;68814;50.872;5.306;2023-09-12T06:07:47;23.15;;;17.23;;
63434;SDS011;68814;50.872;5.306;2023-09-12T06:10:13;28.20;;;18.23;;
63434;SDS011;68814;50.872;5.306;2023-09-12T06:12:39;27.92;;;18.05;;
63434;SDS011;68814;50.872;5.306;2023-09-12T06:15:05;29.67;;;17.98;;
63434;SDS011;68814;50.872;5.306;2023-09-12T06:17:31;25.75;;;17.25;;
63434;SDS011;68814;50.872;5.306;2023-09-12T06:19:57;25.13;;;17.60;;
63434;SDS011;68814;50.872;5.306;2023-09-12T06:22:22;25.60;;;18.23;;
63434;SDS011;68814;50.872;5.306;2023-09-12T06:24:49;26.60;;;18.17;;
63434;SDS011;68814;50.872;5.306;2023-09-12T06:27:15;28.48;;;19.05;;
63434;SDS011;68814;50.872;5.306;2023-09-12T06:29:44;30.60;;;19.35;;
63434;SDS011;68814;50.872;5.306;2023-09-12T06:32:17;31.17;;;19.38;;
63434;SDS011;68814;50.872;5.306;2023-09-12T06:34:43;28.95;;;19.77;;
63434;SDS011;68814;50.872;5.306;2023-09-12T06:37:10;32.65;;;21.13;;
63434;SDS011;68814;50.872;5.306;2023-09-12T06:39:36;29.50;;;19.45;;
63434;SDS011;68814;50.872;5.306;2023-09-12T06:42:02;31.17;;;20.05;;
63434;SDS011;68814;50.872;5.306;2023-09-12T06:44:28;28.10;;;19.05;;
63434;SDS011;68814;50.872;5.306;2023-09-12T06:46:54;30.98;;;19.27;;
63434;SDS011;68814;50.872;5.306;2023-09-12T06:49:20;32.17;;;19.92;;
63434;SDS011;68814;50.872;5.306;2023-09-12T06:51:45;28.98;;;20.13;;
63434;SDS011;68814;50.872;5.306;2023-09-12T06:54:11;31.17;;;21.17;;
63434;SDS011;68814;50.872;5.306;2023-09-12T06:56:40;32.13;;;20.42;;
63434;SDS011;68814;50.872;5.306;2023-09-12T06:59:07;34.90;;;21.60;;
63434;SDS011;68814;50.872;5.306;2023-09-12T07:01:33;38.85;;;24.02;;
63434;SDS011;68814;50.872;5.306;2023-09-12T07:03:59;38.72;;;22.33;;
63434;SDS011;68814;50.872;5.306;2023-09-12T07:06:24;32.58;;;22.83;;
63434;SDS011;68814;50.872;5.306;2023-09-12T07:08:50;43.55;;;23.48;;
63434;SDS011;68814;50.872;5.306;2023-09-12T07:11:18;33.90;;;22.85;;
63434;SDS011;68814;50.872;5.306;2023-09-12T07:13:44;42.92;;;24.13;;
63434;SDS011;68814;50.872;5.306;2023-09-12T07:16:10;36.35;;;23.20;;
63434;SDS011;68814;50.872;5.306;2023-09-12T07:18:36;38.47;;;23.20;;
63434;SDS011;68814;50.872;5.306;2023-09-12T07:21:03;34.28;;;22.10;;
63434;SDS011;68814;50.872;5.306;2023-09-12T07:23:29;34.60;;;23.42;;
63434;SDS011;68814;50.872;5.306;2023-09-12T07:25:56;38.42;;;23.88;;
63434;SDS011;68814;50.872;5.306;2023-09-12T07:28:25;33.30;;;22.63;;
63434;SDS011;68814;50.872;5.306;2023-09-12T07:30:51;36.45;;;21.92;;
63434;SDS011;68814;50.872;5.306;2023-09-12T07:33:23;39.85;;;23.52;;
63434;SDS011;68814;50.872;5.306;2023-09-12T07:35:51;35.72;;;23.23;;
63434;SDS011;68814;50.872;5.306;2023-09-12T07:38:18;32.58;;;22.40;;
63434;SDS011;68814;50.872;5.306;2023-09-12T07:40:45;31.55;;;20.90;;
63434;SDS011;68814;50.872;5.306;2023-09-12T07:43:10;32.95;;;23.13;;
63434;SDS011;68814;50.872;5.306;2023-09-12T07:45:36;33.60;;;22.08;;
63434;SDS011;68814;50.872;5.306;2023-09-12T07:48:06;34.80;;;22.90;;
63434;SDS011;68814;50.872;5.306;2023-09-12T07:50:33;33.90;;;22.25;;
63434;SDS011;68814;50.872;5.306;2023-09-12T07:52:59;35.90;;;22.52;;
63434;SDS011;68814;50.872;5.306;2023-09-12T07:55:24;38.55;;;24.17;;
63434;SDS011;68814;50.872;5.306;2023-09-12T07:57:50;32.70;;;21.40;;
63434;SDS011;68814;50.872;5.306;2023-09-12T08:00:16;38.17;;;22.75;;
63434;SDS011;68814;50.872;5.306;2023-09-12T08:02:42;32.72;;;23.13;;
63434;SDS011;68814;50.872;5.306;2023-09-12T08:05:08;32.78;;;21.20;;
63434;SDS011;68814;50.872;5.306;2023-09-12T08:07:34;34.63;;;22.10;;
63434;SDS011;68814;50.872;5.306;2023-09-12T08:10:00;32.95;;;21.38;;
63434;SDS011;68814;50.872;5.306;2023-09-12T08:12:28;28.05;;;21.08;;
63434;SDS011;68814;50.872;5.306;2023-09-12T08:14:54;33.88;;;23.27;;
63434;SDS011;68814;50.872;5.306;2023-09-12T08:17:21;38.20;;;22.60;;
63434;SDS011;68814;50.872;5.306;2023-09-12T08:19:48;37.25;;;21.88;;
63434;SDS011;68814;50.872;5.306;2023-09-12T08:22:13;34.05;;;21.80;;
63434;SDS011;68814;50.872;5.306;2023-09-12T08:24:39;36.03;;;21.67;;
63434;SDS011;68814;50.872;5.306;2023-09-12T08:27:05;29.60;;;19.80;;
63434;SDS011;68814;50.872;5.306;2023-09-12T08:29:32;32.33;;;21.20;;
63434;SDS011;68814;50.872;5.306;2023-09-12T08:32:00;28.23;;;20.65;;
63434;SDS011;68814;50.872;5.306;2023-09-12T08:34:27;32.83;;;20.75;;
63434;SDS011;68814;50.872;5.306;2023-09-12T08:36:52;25.33;;;18.35;;
63434;SDS011;68814;50.872;5.306;2023-09-12T08:39:38;29.05;;;19.40;;
63434;SDS011;68814;50.872;5.306;2023-09-12T08:42:10;29.15;;;17.17;;
63434;SDS011;68814;50.872;5.306;2023-09-12T08:44:38;28.50;;;18.15;;
63434;SDS011;68814;50.872;5.306;2023-09-12T08:47:07;26.95;;;16.70;;
63434;SDS011;68814;50.872;5.306;2023-09-12T08:49:35;24.15;;;15.43;;
63434;SDS011;68814;50.872;5.306;2023-09-12T08:52:01;30.77;;;18.30;;
63434;SDS011;68814;50.872;5.306;2023-09-12T08:54:27;27.58;;;17.70;;
63434;SDS011;68814;50.872;5.306;2023-09-12T08:56:53;31.05;;;20.27;;
63434;SDS011;68814;50.872;5.306;2023-09-12T08:59:19;26.17;;;16.98;;
63434;SDS011;68814;50.872;5.306;2023-09-12T09:01:45;33.13;;;19.00;;
63434;SDS011;68814;50.872;5.306;2023-09-12T09:04:12;30.67;;;18.85;;
63434;SDS011;68814;50.872;5.306;2023-09-12T09:06:38;27.15;;;18.08;;
63434;SDS011;68814;50.872;5.306;2023-09-12T09:09:07;23.50;;;16.92;;
63434;SDS011;68814;50.872;5.306;2023-09-12T09:11:33;29.70;;;18.27;;
63434;SDS011;68814;50.872;5.306;2023-09-12T09:14:01;31.77;;;17.98;;
63434;SDS011;68814;50.872;5.306;2023-09-12T09:16:28;26.75;;;15.88;;
63434;SDS011;68814;50.872;5.306;2023-09-12T09:18:55;20.92;;;14.90;;
63434;SDS011;68814;50.872;5.306;2023-09-12T09:21:21;23.85;;;16.38;;
63434;SDS011;68814;50.872;5.306;2023-09-12T09:23:52;24.33;;;16.55;;
63434;SDS011;68814;50.872;5.306;2023-09-12T09:26:19;23.10;;;15.38;;
63434;SDS011;68814;50.872;5.306;2023-09-12T09:28:45;22.65;;;14.57;;
63434;SDS011;68814;50.872;5.306;2023-09-12T09:31:35;20.88;;;13.15;;
63434;SDS011;68814;50.872;5.306;2023-09-12T09:34:10;17.80;;;13.73;;
63434;SDS011;68814;50.872;5.306;2023-09-12T09:36:40;23.95;;;15.18;;
63434;SDS011;68814;50.872;5.306;2023-09-12T09:39:07;19.73;;;13.30;;
63434;SDS011;68814;50.872;5.306;2023-09-12T09:41:33;26.33;;;14.75;;
63434;SDS011;68814;50.872;5.306;2023-09-12T09:43:59;17.20;;;12.25;;
63434;SDS011;68814;50.872;5.306;2023-09-12T09:46:25;19.25;;;12.75;;
63434;SDS011;68814;50.872;5.306;2023-09-12T09:48:51;18.67;;;11.75;;
63434;SDS011;68814;50.872;5.306;2023-09-12T09:51:17;23.30;;;13.60;;
63434;SDS011;68814;50.872;5.306;2023-09-12T09:53:43;18.25;;;14.20;;
63434;SDS011;68814;50.872;5.306;2023-09-12T10:01:18;17.23;;;11.90;;
63434;SDS011;68814;50.872;5.306;2023-09-12T10:03:49;17.98;;;12.18;;
63434;SDS011;68814;50.872;5.306;2023-09-12T10:06:16;14.48;;;10.05;;
63434;SDS011;68814;50.872;5.306;2023-09-12T10:08:43;13.23;;;9.40;;
63434;SDS011;68814;50.872;5.306;2023-09-12T10:11:14;9.35;;;6.30;;
63434;SDS011;68814;50.872;5.306;2023-09-12T10:13:42;13.88;;;6.93;;
63434;SDS011;68814;50.872;5.306;2023-09-12T10:16:15;7.85;;;5.32;;
63434;SDS011;68814;50.872;5.306;2023-09-12T10:18:44;10.73;;;5.82;;
63434;SDS011;68814;50.872;5.306;2023-09-12T10:21:21;9.10;;;5.10;;
63434;SDS011;68814;50.872;5.306;2023-09-12T10:23:55;8.93;;;4.78;;
63434;SDS011;68814;50.872;5.306;2023-09-12T10:26:22;6.97;;;5.00;;
63434;SDS011;68814;50.872;5.306;2023-09-12T10:28:49;11.73;;;4.95;;
63434;SDS011;68814;50.872;5.306;2023-09-12T10:31:16;8.32;;;5.90;;
63434;SDS011;68814;50.872;5.306;2023-09-12T10:33:43;8.30;;;4.93;;
63434;SDS011;68814;50.872;5.306;2023-09-12T10:36:09;7.38;;;5.68;;
63434;SDS011;68814;50.872;5.306;2023-09-12T10:38:40;11.18;;;4.57;;
63434;SDS011;68814;50.872;5.306;2023-09-12T10:41:11;9.43;;;7.53;;
63434;SDS011;68814;50.872;5.306;2023-09-12T10:43:40;11.30;;;7.28;;
63434;SDS011;68814;50.872;5.306;2023-09-12T10:46:08;13.32;;;7.15;;
63434;SDS011;68814;50.872;5.306;2023-09-12T10:48:35;12.85;;;8.20;;
63434;SDS011;68814;50.872;5.306;2023-09-12T10:51:01;9.32;;;6.43;;
63434;SDS011;68814;50.872;5.306;2023-09-12T10:53:30;11.73;;;7.13;;
63434;SDS011;68814;50.872;5.306;2023-09-12T10:56:15;19.38;;;8.88;;
63434;SDS011;68814;50.872;5.306;2023-09-12T11:01:30;10.55;;;7.18;;
63434;SDS011;68814;50.872;5.306;2023-09-12T11:03:57;11.73;;;7.10;;
63434;SDS011;68814;50.872;5.306;2023-09-12T11:06:24;8.75;;;6.07;;
63434;SDS011;68814;50.872;5.306;2023-09-12T11:09:29;10.50;;;7.47;;
63434;SDS011;68814;50.872;5.306;2023-09-12T11:11:49;11.30;;;7.70;;
63434;SDS011;68814;50.872;5.306;2023-09-12T11:14:29;10.95;;;7.18;;
63434;SDS011;68814;50.872;5.306;2023-09-12T11:22:20;11.02;;;6.45;;
63434;SDS011;68814;50.872;5.306;2023-09-12T11:24:46;7.20;;;5.45;;
63434;SDS011;68814;50.872;5.306;2023-09-12T11:27:12;16.08;;;6.18;;
63434;SDS011;68814;50.872;5.306;2023-09-12T11:29:39;10.90;;;5.40;;
63434;SDS011;68814;50.872;5.306;2023-09-12T11:32:06;7.55;;;5.32;;
63434;SDS011;68814;50.872;5.306;2023-09-12T11:34:40;6.63;;;4.88;;
63434;SDS011;68814;50.872;5.306;2023-09-12T11:37:08;11.20;;;4.82;;
63434;SDS011;68814;50.872;5.306;2023-09-12T11:39:35;6.55;;;4.88;;
63434;SDS011;68814;50.872;5.306;2023-09-12T11:42:02;5.95;;;4.47;;
63434;SDS011;68814;50.872;5.306;2023-09-12T11:44:30;6.80;;;4.43;;
63434;SDS011;68814;50.872;5.306;2023-09-12T11:46:56;8.95;;;5.00;;
63434;SDS011;68814;50.872;5.306;2023-09-12T11:49:37;11.25;;;6.10;;
63434;SDS011;68814;50.872;5.306;2023-09-12T11:54:32;5.55;;;4.13;;
63434;SDS011;68814;50.872;5.306;2023-09-12T11:56:58;5.35;;;3.90;;
63434;SDS011;68814;50.872;5.306;2023-09-12T11:59:27;6.50;;;4.15;;
63434;SDS011;68814;50.872;5.306;2023-09-12T12:01:52;7.43;;;4.95;;
63434;SDS011;68814;50.872;5.306;2023-09-12T12:04:23;6.70;;;3.88;;
63434;SDS011;68814;50.872;5.306;2023-09-12T12:09:18;8.45;;;3.72;;
63434;SDS011;68814;50.872;5.306;2023-09-12T12:11:47;8.65;;;4.47;;
63434;SDS011;68814;50.872;5.306;2023-09-12T12:14:13;6.22;;;4.30;;
63434;SDS011;68814;50.872;5.306;2023-09-12T12:16:44;5.25;;;3.85;;
63434;SDS011;68814;50.872;5.306;2023-09-12T12:19:11;4.50;;;3.10;;
63434;SDS011;68814;50.872;5.306;2023-09-12T12:21:41;5.97;;;3.78;;
63434;SDS011;68814;50.872;5.306;2023-09-12T12:24:09;8.82;;;3.75;;
63434;SDS011;68814;50.872;5.306;2023-09-12T12:26:37;4.13;;;2.75;;
63434;SDS011;68814;50.872;5.306;2023-09-12T12:29:05;6.22;;;3.00;;
63434;SDS011;68814;50.872;5.306;2023-09-12T12:31:31;6.00;;;3.83;;
63434;SDS011;68814;50.872;5.306;2023-09-12T12:33:56;3.65;;;2.40;;
63434;SDS011;68814;50.872;5.306;2023-09-12T12:36:24;4.28;;;2.65;;
63434;SDS011;68814;50.872;5.306;2023-09-12T12:38:50;2.92;;;2.35;;
63434;SDS011;68814;50.872;5.306;2023-09-12T12:41:22;3.80;;;2.55;;
63434;SDS011;68814;50.872;5.306;2023-09-12T12:43:56;5.82;;;2.67;;
63434;SDS011;68814;50.872;5.306;2023-09-12T12:46:26;3.25;;;2.40;;
63434;SDS011;68814;50.872;5.306;2023-09-12T12:48:52;3.92;;;2.50;;
63434;SDS011;68814;50.872;5.306;2023-09-12T12:51:23;4.15;;;3.20;;
63434;SDS011;68814;50.872;5.306;2023-09-12T12:53:50;3.97;;;2.83;;
63434;SDS011;68814;50.872;5.306;2023-09-12T12:56:17;4.20;;;3.40;;
63434;SDS011;68814;50.872;5.306;2023-09-12T12:58:48;3.83;;;2.72;;
63434;SDS011;68814;50.872;5.306;2023-09-12T13:01:15;4.22;;;3.08;;
63434;SDS011;68814;50.872;5.306;2023-09-12T13:03:41;5.25;;;3.10;;
63434;SDS011;68814;50.872;5.306;2023-09-12T13:06:07;3.70;;;2.30;;
63434;SDS011;68814;50.872;5.306;2023-09-12T13:08:38;5.13;;;2.72;;
63434;SDS011;68814;50.872;5.306;2023-09-12T13:11:06;4.10;;;2.55;;
63434;SDS011;68814;50.872;5.306;2023-09-12T13:13:32;9.52;;;3.55;;
63434;SDS011;68814;50.872;5.306;2023-09-12T13:15:57;11.15;;;3.55;;
63434;SDS011;68814;50.872;5.306;2023-09-12T13:18:23;6.28;;;3.17;;
63434;SDS011;68814;50.872;5.306;2023-09-12T13:20:50;2.83;;;2.38;;
63434;SDS011;68814;50.872;5.306;2023-09-12T13:23:15;2.83;;;2.20;;
63434;SDS011;68814;50.872;5.306;2023-09-12T13:25:41;4.40;;;2.92;;
63434;SDS011;68814;50.872;5.306;2023-09-12T13:28:07;5.68;;;2.63;;
63434;SDS011;68814;50.872;5.306;2023-09-12T13:30:33;3.40;;;2.67;;
63434;SDS011;68814;50.872;5.306;2023-09-12T13:32:58;5.43;;;2.60;;
63434;SDS011;68814;50.872;5.306;2023-09-12T13:35:24;3.90;;;2.67;;
63434;SDS011;68814;50.872;5.306;2023-09-12T13:37:50;4.28;;;2.08;;
63434;SDS011;68814;50.872;5.306;2023-09-12T13:40:15;4.70;;;2.67;;
63434;SDS011;68814;50.872;5.306;2023-09-12T13:42:41;4.50;;;2.60;;
63434;SDS011;68814;50.872;5.306;2023-09-12T13:45:07;4.18;;;2.50;;
63434;SDS011;68814;50.872;5.306;2023-09-12T13:47:33;5.32;;;2.58;;
63434;SDS011;68814;50.872;5.306;2023-09-12T13:49:58;3.80;;;2.28;;
63434;SDS011;68814;50.872;5.306;2023-09-12T13:52:26;3.60;;;2.33;;
63434;SDS011;68814;50.872;5.306;2023-09-12T13:54:52;6.07;;;2.90;;
63434;SDS011;68814;50.872;5.306;2023-09-12T13:57:18;4.35;;;2.45;;
63434;SDS011;68814;50.872;5.306;2023-09-12T13:59:44;4.50;;;2.30;;
63434;SDS011;68814;50.872;5.306;2023-09-12T14:02:09;2.42;;;2.22;;
63434;SDS011;68814;50.872;5.306;2023-09-12T14:04:35;3.30;;;2.55;;
63434;SDS011;68814;50.872;5.306;2023-09-12T14:07:01;4.57;;;2.30;;
63434;SDS011;68814;50.872;5.306;2023-09-12T14:09:27;3.40;;;1.92;;
63434;SDS011;68814;50.872;5.306;2023-09-12T14:11:53;2.95;;;2.35;;
63434;SDS011;68814;50.872;5.306;2023-09-12T14:14:19;3.40;;;2.30;;
63434;SDS011;68814;50.872;5.306;2023-09-12T14:16:45;6.75;;;2.78;;
63434;SDS011;68814;50.872;5.306;2023-09-12T14:19:10;5.20;;;2.50;;
63434;SDS011;68814;50.872;5.306;2023-09-12T14:21:37;3.10;;;2.60;;
63434;SDS011;68814;50.872;5.306;2023-09-12T14:24:02;4.43;;;2.58;;
63434;SDS011;68814;50.872;5.306;2023-09-12T14:26:29;4.82;;;2.60;;
63434;SDS011;68814;50.872;5.306;2023-09-12T14:28:57;6.00;;;2.67;;
63434;SDS011;68814;50.872;5.306;2023-09-12T14:31:22;5.07;;;2.50;;
63434;SDS011;68814;50.872;5.306;2023-09-12T14:33:48;4.03;;;2.60;;
63434;SDS011;68814;50.872;5.306;2023-09-12T14:36:14;5.35;;;2.72;;
63434;SDS011;68814;50.872;5.306;2023-09-12T14:38:40;2.83;;;2.30;;
63434;SDS011;68814;50.872;5.306;2023-09-12T14:41:05;5.05;;;2.83;;
63434;SDS011;68814;50.872;5.306;2023-09-12T14:43:31;4.85;;;2.30;;
63434;SDS011;68814;50.872;5.306;2023-09-12T14:45:57;2.80;;;2.30;;
63434;SDS011;68814;50.872;5.306;2023-09-12T14:48:22;4.50;;;2.58;;
63434;SDS011;68814;50.872;5.306;2023-09-12T14:50:48;3.47;;;2.35;;
63434;SDS011;68814;50.872;5.306;2023-09-12T14:53:14;3.05;;;2.30;;
63434;SDS011;68814;50.872;5.306;2023-09-12T14:55:43;4.95;;;2.40;;